createdAt,value
2019-04-04T00:01:29.139Z,6.93
2019-04-04T00:06:32.673Z,6.43
2019-04-04T00:11:36.908Z,6.33
2019-04-04T00:16:40.632Z,6.43
2019-04-04T00:21:43.927Z,7.17
2019-04-04T00:26:47.471Z,7.50
2019-04-04T00:31:50.976Z,7.27
2019-04-04T00:36:54.496Z,7.10
2019-04-04T00:41:58.036Z,6.57
2019-04-04T00:47:02.231Z,6.87
2019-04-04T00:52:05.857Z,7.17
2019-04-04T00:57:09.150Z,6.77
2019-04-04T01:02:12.496Z,7.30
2019-04-04T01:07:16.040Z,7.17
2019-04-04T01:12:21.437Z,7.73
2019-04-04T01:17:24.588Z,7.43
2019-04-04T01:22:27.897Z,7.27
2019-04-04T01:27:31.431Z,7.70
2019-04-04T01:32:34.889Z,8.07
2019-04-04T01:37:38.152Z,7.03
2019-04-04T01:42:41.455Z,7.50
2019-04-04T01:47:47.668Z,7.43
2019-04-04T01:52:50.112Z,7.47
2019-04-04T01:57:53.477Z,7.63
2019-04-04T02:02:57.397Z,7.57
2019-04-04T02:08:01.452Z,7.90
2019-04-04T02:13:05.211Z,8.53
2019-04-04T02:18:08.485Z,7.70
2019-04-04T02:23:11.934Z,8.17
2019-04-04T02:28:15.465Z,7.63
2019-04-04T02:33:19.066Z,8.33
2019-04-04T02:38:27.042Z,9.37
2019-04-04T02:43:28.610Z,8.53
2019-04-04T02:48:32.379Z,8.17
2019-04-04T02:53:35.912Z,8.57
2019-04-04T02:58:39.434Z,9.23
2019-04-04T03:03:42.791Z,8.70
2019-04-04T03:08:46.391Z,8.77
2019-04-04T03:13:49.685Z,8.07
2019-04-04T03:18:53.216Z,8.43
2019-04-04T03:23:56.839Z,8.50
2019-04-04T03:29:04.289Z,8.90
2019-04-04T03:34:10.944Z,8.50
2019-04-04T03:39:11.211Z,8.83
2019-04-04T03:44:14.852Z,8.70
2019-04-04T03:49:23.409Z,8.73
2019-04-04T03:54:24.970Z,8.80
2019-04-04T03:59:29.632Z,8.43
2019-04-04T04:04:35.081Z,9.33
2019-04-04T04:09:39.049Z,8.80
2019-04-04T04:14:42.410Z,9.53
2019-04-04T04:19:45.943Z,9.10
2019-04-04T04:24:49.231Z,9.57
2019-04-04T04:29:52.512Z,9.47
2019-04-04T04:34:56.068Z,9.53
2019-04-04T04:39:59.339Z,8.83
2019-04-04T04:45:02.626Z,8.87
2019-04-04T04:50:09.500Z,9.40
2019-04-04T04:55:12.623Z,8.40
2019-04-04T05:00:16.908Z,9.00
2019-04-04T05:05:20.231Z,8.87
2019-04-04T05:10:23.463Z,10.00
2019-04-04T05:15:26.746Z,10.27
2019-04-04T05:20:30.301Z,10.10
2019-04-04T05:25:33.852Z,10.00
2019-04-04T05:30:37.381Z,12.00
2019-04-04T05:35:42.421Z,11.13
2019-04-04T05:40:45.719Z,10.73
2019-04-04T05:45:49.018Z,10.10
2019-04-04T05:50:52.544Z,11.13
2019-04-04T05:55:56.105Z,10.30
2019-04-04T06:01:01.828Z,10.60
2019-04-04T06:06:05.038Z,10.53
2019-04-04T06:11:08.334Z,10.33
2019-04-04T06:16:11.651Z,10.57
2019-04-04T06:21:14.955Z,10.43
2019-04-04T06:26:18.271Z,9.73
2019-04-04T06:31:21.585Z,10.67
2019-04-04T06:36:25.138Z,11.30
2019-04-04T06:41:28.523Z,10.60
2019-04-04T06:46:32.039Z,10.70
2019-04-04T06:51:35.352Z,11.43
2019-04-04T06:56:38.848Z,10.53
2019-04-04T07:01:42.151Z,11.10
2019-04-04T07:06:45.656Z,10.50
2019-04-04T07:11:49.215Z,10.23
2019-04-04T07:16:52.601Z,11.10
2019-04-04T07:21:56.119Z,11.23
2019-04-04T07:26:59.652Z,11.33
2019-04-04T07:32:02.938Z,11.73
2019-04-04T07:37:06.216Z,11.23
2019-04-04T07:42:09.527Z,11.13
2019-04-04T07:47:15.782Z,11.40
2019-04-04T07:52:18.644Z,12.13
2019-04-04T07:57:21.913Z,11.50
2019-04-04T08:02:25.199Z,11.30
2019-04-04T08:07:28.492Z,10.60
2019-04-04T08:12:31.801Z,12.13
2019-04-04T08:17:35.081Z,12.00
2019-04-04T08:22:39.817Z,13.27
2019-04-04T08:27:43.392Z,11.53
2019-04-04T08:32:46.868Z,10.87
2019-04-04T08:37:50.157Z,10.87
2019-04-04T08:42:53.440Z,11.57
2019-04-04T08:47:56.965Z,12.40
2019-04-04T08:53:00.243Z,11.87
2019-04-04T08:58:03.548Z,12.57
2019-04-04T09:03:07.133Z,11.37
2019-04-04T09:08:10.361Z,11.80
2019-04-04T09:13:13.649Z,11.90
2019-04-04T09:18:17.246Z,11.93
2019-04-04T09:23:20.530Z,12.10
2019-04-04T09:28:23.887Z,13.57
2019-04-04T09:33:27.421Z,12.07
2019-04-04T09:38:30.699Z,12.73
2019-04-04T09:43:34.054Z,12.17
2019-04-04T09:48:37.573Z,11.37
2019-04-04T09:53:52.932Z,12.23
2019-04-04T09:58:46.108Z,10.83
2019-04-04T10:03:49.647Z,10.77
2019-04-04T10:08:53.654Z,10.93
2019-04-04T10:13:56.941Z,11.97
2019-04-04T10:19:00.213Z,11.13
2019-04-04T10:24:04.231Z,11.10
2019-04-04T10:29:07.770Z,12.33
2019-04-04T10:34:11.314Z,12.77
2019-04-04T10:39:28.065Z,9.77
2019-04-04T10:44:20.206Z,8.00
2019-04-04T10:49:23.494Z,8.87
2019-04-04T10:54:26.777Z,8.27
2019-04-04T10:59:30.047Z,9.27
2019-04-04T11:04:33.329Z,8.97
2019-04-04T11:09:42.132Z,8.57
2019-04-04T11:14:42.406Z,8.67
2019-04-04T11:19:45.934Z,8.20
2019-04-04T11:24:49.591Z,7.97
2019-04-04T11:29:53.101Z,8.23
2019-04-04T11:34:56.377Z,7.33
2019-04-04T11:39:59.910Z,8.27
2019-04-04T11:45:03.182Z,7.10
2019-04-04T11:50:07.914Z,7.70
2019-04-04T11:55:11.694Z,8.97
2019-04-04T12:00:16.685Z,6.47
2019-04-04T12:05:20.212Z,7.43
2019-04-04T12:10:24.107Z,7.40
2019-04-04T12:15:27.393Z,7.23
2019-04-04T12:20:32.475Z,7.50
2019-04-04T12:25:36.029Z,7.53
2019-04-04T12:30:39.562Z,5.77
2019-04-04T12:35:43.078Z,5.00
2019-04-04T12:40:46.600Z,5.20
2019-04-04T12:45:50.147Z,4.73
2019-04-04T12:50:53.447Z,5.10
2019-04-04T12:55:56.713Z,5.27
2019-04-04T13:01:00.220Z,6.00
2019-04-04T13:06:03.735Z,6.33
2019-04-04T13:11:07.346Z,4.73
2019-04-04T13:16:11.359Z,3.43
2019-04-04T13:21:14.913Z,2.80
2019-04-04T13:26:18.263Z,2.87
2019-04-04T13:31:21.792Z,2.67
2019-04-04T13:36:25.074Z,2.70
2019-04-04T13:41:29.149Z,2.73
2019-04-04T13:46:32.501Z,2.70
2019-04-04T13:51:36.594Z,2.90
2019-04-04T13:56:39.891Z,2.77
2019-04-04T14:01:43.436Z,2.63
2019-04-04T14:06:46.733Z,2.50
2019-04-04T14:11:50.014Z,2.60
2019-04-04T14:16:53.551Z,2.77
2019-04-04T14:21:57.081Z,3.20
2019-04-04T14:27:00.681Z,3.30
2019-04-04T14:32:04.220Z,3.00
2019-04-04T14:37:07.749Z,3.03
2019-04-04T14:42:11.028Z,3.23
2019-04-04T14:47:16.256Z,2.77
2019-04-04T14:52:20.689Z,2.90
2019-04-04T14:57:24.061Z,2.90
2019-04-04T15:02:27.347Z,2.60
2019-04-04T15:12:51.586Z,2.10
2019-04-04T15:17:54.879Z,2.50
2019-04-04T15:28:09.068Z,2.27
2019-04-04T15:33:12.596Z,1.77
2019-04-04T15:38:16.197Z,1.87
2019-04-04T15:43:19.550Z,2.00
2019-04-04T15:48:22.826Z,1.93
2019-04-04T15:53:26.381Z,2.37
2019-04-04T15:58:29.918Z,2.80
2019-04-04T16:03:33.272Z,2.33
2019-04-04T16:08:36.797Z,2.10
2019-04-04T16:13:40.917Z,2.23
2019-04-04T16:18:44.443Z,1.60
2019-04-04T16:23:47.969Z,1.67
2019-04-04T16:28:51.285Z,1.30
2019-04-04T16:33:54.572Z,1.87
2019-04-04T16:38:57.877Z,2.30
2019-04-04T16:44:01.404Z,2.10
2019-04-04T16:49:05.036Z,2.53
2019-04-04T16:54:08.382Z,2.07
2019-04-04T16:59:11.677Z,2.37
2019-04-04T17:04:14.944Z,1.90
2019-04-04T17:09:18.250Z,2.80
2019-04-04T17:14:21.793Z,2.40
2019-04-04T17:19:25.188Z,2.77
2019-04-04T17:24:28.741Z,2.87
2019-04-04T17:29:32.252Z,3.20
2019-04-04T17:34:35.788Z,1.97
2019-04-04T17:39:39.114Z,2.30
2019-04-04T17:44:42.422Z,2.37
2019-04-04T17:49:45.958Z,2.90
2019-04-04T17:54:49.980Z,2.80
2019-04-04T17:59:53.334Z,2.87
2019-04-04T18:04:56.639Z,3.10
2019-04-04T18:09:59.904Z,2.73
2019-04-04T18:15:03.648Z,3.20
2019-04-04T18:20:08.272Z,2.73
2019-04-04T18:25:11.620Z,3.00
2019-04-04T18:30:15.340Z,2.77
2019-04-04T18:35:18.652Z,3.63
2019-04-04T18:40:22.160Z,4.10
2019-04-04T18:45:25.440Z,4.07
2019-04-04T18:50:28.722Z,3.40
2019-04-04T18:55:31.993Z,3.43
2019-04-04T19:00:35.604Z,3.03
2019-04-04T19:05:39.342Z,3.77
2019-04-04T19:10:42.659Z,3.80
2019-04-04T19:15:45.935Z,4.27
2019-04-04T19:20:49.213Z,4.47
2019-04-04T19:25:52.478Z,5.40
2019-04-04T19:30:58.462Z,5.57
2019-04-04T19:36:00.953Z,5.97
2019-04-04T19:41:04.402Z,5.87
2019-04-04T19:46:07.677Z,5.53
2019-04-04T19:51:10.954Z,6.17
2019-04-04T19:56:14.247Z,5.70
2019-04-04T20:01:17.516Z,6.37
2019-04-04T20:06:21.044Z,5.43
2019-04-04T20:11:24.562Z,6.23
2019-04-04T20:16:28.079Z,5.10
2019-04-04T20:21:31.631Z,4.80
2019-04-04T20:26:35.160Z,6.20
2019-04-04T20:31:38.460Z,6.07
2019-04-04T20:36:41.762Z,5.40
2019-04-04T20:41:45.265Z,5.43
2019-04-04T20:46:48.538Z,5.80
2019-04-04T20:51:51.824Z,6.53
2019-04-04T20:56:55.355Z,6.93
2019-04-04T21:01:58.636Z,6.97
2019-04-04T21:07:01.918Z,6.17
2019-04-04T21:12:05.433Z,7.23
2019-04-04T21:17:08.723Z,7.27
2019-04-04T21:22:12.014Z,6.70
2019-04-04T21:27:15.316Z,7.43
2019-04-04T21:32:18.855Z,7.30
2019-04-04T21:37:22.382Z,7.17
2019-04-04T21:42:25.930Z,8.10
2019-04-04T21:47:29.227Z,7.90
2019-04-04T21:52:32.527Z,8.67
2019-04-04T21:57:35.810Z,9.57
2019-04-04T22:02:39.176Z,9.60
2019-04-04T22:07:42.484Z,8.73
2019-04-04T22:12:45.780Z,9.03
2019-04-04T22:17:49.119Z,9.57
2019-04-04T22:22:52.421Z,9.87
2019-04-04T22:27:55.715Z,10.13
2019-04-04T22:33:01.701Z,10.27
2019-04-04T22:38:04.081Z,10.53
2019-04-04T22:43:07.983Z,11.93
2019-04-04T22:48:11.518Z,11.03
2019-04-04T22:53:15.071Z,11.50
2019-04-04T22:58:28.174Z,11.90
2019-04-04T23:03:25.157Z,12.87
2019-04-04T23:08:28.493Z,12.63
2019-04-04T23:13:31.715Z,12.73
2019-04-04T23:18:34.999Z,12.33
2019-04-04T23:23:38.519Z,12.23
2019-04-04T23:28:41.870Z,11.47
2019-04-04T23:33:45.145Z,11.50
2019-04-04T23:38:48.667Z,11.00
2019-04-04T23:43:51.949Z,12.40
2019-04-04T23:48:55.484Z,10.90
2019-04-04T23:53:58.759Z,11.00
2019-04-04T23:59:02.288Z,10.47
